Time;durP1;ratioP1;P1;durP2;ratioP2;P2;SDS_P1;SDS_P2;PMS_P1;PMS_P2;Temp;Humidity;BMP_temperature;BMP_pressure;BME280_temperature;BME280_humidity;BME280_pressure;Samples;Min_cycle;Max_cycle;Signal;HPM_P1;HPM_P2
2022/08/22 00:00:53;;;;;;;;;;;26.20;61.20;;;;;;5096006;28;19912;-73
2022/08/22 00:03:34;;;;;;;;;;;26.10;61.10;;;;;;5095169;28;20380;-73
2022/08/22 00:06:05;;;;;;;;;;;26.10;61.10;;;;;;5094832;28;20366;-73
2022/08/22 00:08:40;;;;;;;;;;;26.10;60.90;;;;;;5095613;28;19943;-72
2022/08/22 00:11:13;;;;;;;;;;;26.10;60.90;;;;;;5096074;28;19908;-73
2022/08/22 00:13:39;;;;;;;;;;;26.00;60.90;;;;;;5096234;28;19912;-72
2022/08/22 00:16:12;;;;;;;;;;;26.00;60.90;;;;;;5095742;28;20392;-72
2022/08/22 00:18:46;;;;;;;;;;;26.00;60.90;;;;;;5094568;28;19951;-73
2022/08/22 00:21:14;;;;;;;;;;;26.00;61.00;;;;;;5095670;28;19912;-73
2022/08/22 00:23:43;;;;;;;;;;;26.00;61.00;;;;;;5095730;28;20392;-73
2022/08/22 00:26:34;;;;;;;;;;;26.00;61.00;;;;;;5095557;28;20350;-72
2022/08/22 00:29:05;;;;;;;;;;;26.00;60.80;;;;;;5079363;28;19908;-73
2022/08/22 00:31:50;;;;;;;;;;;26.00;61.00;;;;;;5095261;28;19908;-72
2022/08/22 00:34:21;;;;;;;;;;;25.90;61.10;;;;;;5095561;28;19912;-72
2022/08/22 00:37:10;;;;;;;;;;;25.90;61.20;;;;;;5094793;28;19978;-73
2022/08/22 00:39:35;;;;;;;;;;;25.90;61.30;;;;;;5089539;28;19912;-73
2022/08/22 00:42:20;;;;;;;;;;;25.80;61.40;;;;;;5095202;28;19908;-73
2022/08/22 00:45:01;;;;;;;;;;;25.80;61.40;;;;;;5095278;28;19915;-72
2022/08/22 00:47:45;;;;;;;;;;;25.80;61.50;;;;;;5094991;28;19932;-73
2022/08/22 00:50:29;;;;;;;;;;;25.70;61.40;;;;;;5094771;28;19915;-73
2022/08/22 00:52:57;;;;;;;;;;;25.70;61.50;;;;;;5094917;28;19908;-73
2022/08/22 00:55:26;;;;;;;;;;;25.70;61.60;;;;;;5094958;28;20259;-71
2022/08/22 00:57:54;;;;;;;;;;;25.60;61.50;;;;;;5095171;28;19912;-73
2022/08/22 01:00:24;;;;;;;;;;;25.70;61.70;;;;;;5094862;28;20255;-73
2022/08/22 01:03:09;;;;;;;;;;;25.60;61.40;;;;;;5094250;28;19908;-73
2022/08/22 01:05:53;;;;;;;;;;;25.60;61.40;;;;;;5094620;28;19961;-73
2022/08/22 01:08:27;;;;;;;;;;;25.60;61.40;;;;;;5094815;28;20006;-73
2022/08/22 01:11:11;;;;;;;;;;;25.00;60.70;;;;;;5094558;28;19920;-73
2022/08/22 01:13:56;;;;;;;;;;;25.50;61.30;;;;;;5093374;28;19912;-73
2022/08/22 01:16:33;;;;;;;;;;;25.50;61.40;;;;;;5094533;28;19912;-73
2022/08/22 01:19:18;;;;;;;;;;;25.50;61.40;;;;;;5094641;28;20324;-73
2022/08/22 01:22:03;;;;;;;;;;;25.50;61.20;;;;;;5094573;28;19908;-73
2022/08/22 01:27:32;;;;;;;;;;;25.50;61.30;;;;;;5094657;28;19959;-73
2022/08/22 01:30:05;;;;;;;;;;;25.40;61.30;;;;;;5094356;28;19912;-75
2022/08/22 01:32:49;;;;;;;;;;;25.40;60.90;;;;;;5094561;28;19993;-74
2022/08/22 01:35:26;;;;;;;;;;;25.40;61.40;;;;;;5094569;28;19909;-73
2022/08/22 01:38:00;;;;;;;;;;;25.40;61.00;;;;;;5094303;28;19927;-73
2022/08/22 01:40:44;;;;;;;;;;;25.40;60.80;;;;;;5094268;28;19913;-73
2022/08/22 01:43:09;;;;;;;;;;;25.40;60.70;;;;;;5094685;28;19931;-73
2022/08/22 01:45:38;;;;;;;;;;;25.40;60.70;;;;;;5094384;28;20357;-73
2022/08/22 01:48:30;;;;;;;;;;;25.30;60.50;;;;;;5092662;28;19929;-72
2022/08/22 01:51:00;;;;;;;;;;;25.30;60.50;;;;;;5092560;28;19912;-73
2022/08/22 01:53:38;;;;;;;;;;;25.30;60.60;;;;;;5093129;28;19909;-73
2022/08/22 01:56:10;;;;;;;;;;;25.30;60.50;;;;;;5094107;28;19908;-74
2022/08/22 01:58:37;;;;;;;;;;;25.30;60.50;;;;;;5093964;28;20350;-73
2022/08/22 02:01:16;;;;;;;;;;;25.20;60.30;;;;;;5093785;28;19916;-73
2022/08/22 02:04:00;;;;;;;;;;;25.20;60.30;;;;;;5094241;28;19915;-73
2022/08/22 02:06:33;;;;;;;;;;;25.20;60.00;;;;;;5093734;28;20003;-73
2022/08/22 02:09:03;;;;;;;;;;;25.10;60.30;;;;;;5094116;28;20378;-73
2022/08/22 02:11:34;;;;;;;;;;;25.10;60.30;;;;;;5097106;28;19958;-73
2022/08/22 02:14:12;;;;;;;;;;;25.10;60.20;;;;;;5098391;28;19931;-73
2022/08/22 02:16:39;;;;;;;;;;;25.10;60.30;;;;;;5098223;28;19915;-74
2022/08/22 02:19:14;;;;;;;;;;;25.10;60.30;;;;;;5097980;28;20062;-73
2022/08/22 02:21:42;;;;;;;;;;;25.10;60.30;;;;;;5097803;28;19929;-72
2022/08/22 02:27:18;;;;;;;;;;;25.10;60.20;;;;;;5098133;28;20320;-72
2022/08/22 02:30:22;;;;;;;;;;;25.00;60.20;;;;;;5098057;28;19947;-72
2022/08/22 02:33:01;;;;;;;;;;;25.00;60.20;;;;;;5055064;28;19909;-72
2022/08/22 02:35:30;;;;;;;;;;;25.00;60.10;;;;;;5055152;28;20322;-71
2022/08/22 02:38:02;;;;;;;;;;;25.00;60.10;;;;;;5079641;28;19921;-73
2022/08/22 02:40:27;;;;;;;;;;;25.00;60.10;;;;;;5097841;28;20355;-72
2022/08/22 02:43:02;;;;;;;;;;;25.00;60.00;;;;;;5097645;28;19908;-73
2022/08/22 02:45:34;;;;;;;;;;;24.90;60.10;;;;;;5097620;28;20273;-72
2022/08/22 02:48:05;;;;;;;;;;;24.90;60.00;;;;;;5097231;28;19915;-72
2022/08/22 02:50:36;;;;;;;;;;;24.90;60.00;;;;;;5097526;28;19961;-73
2022/08/22 02:53:08;;;;;;;;;;;24.80;59.90;;;;;;5097364;28;19913;-74
2022/08/22 02:55:36;;;;;;;;;;;24.90;60.00;;;;;;5096251;28;20419;-72
2022/08/22 02:58:02;;;;;;;;;;;24.80;59.80;;;;;;5097493;28;20416;-73
2022/08/22 03:00:29;;;;;;;;;;;24.80;59.70;;;;;;5097205;28;19912;-75
2022/08/22 03:02:57;;;;;;;;;;;24.80;60.00;;;;;;5097151;28;19961;-73
2022/08/22 03:05:27;;;;;;;;;;;24.80;60.10;;;;;;5096951;28;20274;-73
2022/08/22 03:08:02;;;;;;;;;;;24.80;60.10;;;;;;5096061;28;20003;-73
2022/08/22 03:10:31;;;;;;;;;;;24.80;60.20;;;;;;5097488;28;19920;-72
2022/08/22 03:12:57;;;;;;;;;;;24.80;59.90;;;;;;5097418;28;20350;-72
2022/08/22 03:15:35;;;;;;;;;;;24.90;59.80;;;;;;5096892;28;19959;-73
2022/08/22 03:18:05;;;;;;;;;;;24.90;59.90;;;;;;5097055;28;19951;-73
2022/08/22 03:20:43;;;;;;;;;;;24.90;59.90;;;;;;5096901;28;19973;-72
2022/08/22 03:23:28;;;;;;;;;;;24.90;59.90;;;;;;5095542;28;19915;-73
2022/08/22 03:26:00;;;;;;;;;;;24.90;59.80;;;;;;5094732;28;19930;-73
2022/08/22 03:28:30;;;;;;;;;;;24.90;59.90;;;;;;5096327;28;19915;-73
2022/08/22 03:30:55;;;;;;;;;;;24.90;59.60;;;;;;5096637;28;19915;-73
2022/08/22 03:33:26;;;;;;;;;;;24.90;59.70;;;;;;5096757;28;20354;-72
2022/08/22 03:36:04;;;;;;;;;;;24.90;59.70;;;;;;5095081;28;19961;-71
2022/08/22 03:38:29;;;;;;;;;;;24.90;59.60;;;;;;5096674;28;19923;-72
2022/08/22 03:41:10;;;;;;;;;;;24.90;59.90;;;;;;5095076;28;20347;-70
2022/08/22 03:43:35;;;;;;;;;;;24.90;59.60;;;;;;5096470;28;20369;-73
2022/08/22 03:46:04;;;;;;;;;;;24.90;59.50;;;;;;5095157;28;19908;-73
2022/08/22 03:48:37;;;;;;;;;;;24.90;59.60;;;;;;5094878;28;19908;-72
2022/08/22 03:51:02;;;;;;;;;;;24.90;59.60;;;;;;5096246;28;20259;-73
2022/08/22 03:53:48;;;;;;;;;;;24.90;59.70;;;;;;5094877;28;19969;-72
2022/08/22 03:56:13;;;;;;;;;;;24.90;59.70;;;;;;5095408;28;19908;-72
2022/08/22 03:58:59;;;;;;;;;;;24.90;59.90;;;;;;5095023;28;19957;-73
2022/08/22 04:01:38;;;;;;;;;;;25.00;59.60;;;;;;5094780;28;19912;-73
2022/08/22 04:04:03;;;;;;;;;;;25.00;59.70;;;;;;5095982;28;20002;-72
2022/08/22 04:06:43;;;;;;;;;;;25.00;59.60;;;;;;5095706;28;19950;-73
2022/08/22 04:09:17;;;;;;;;;;;25.10;59.60;;;;;;5094943;28;19920;-73
2022/08/22 04:11:49;;;;;;;;;;;25.10;59.50;;;;;;5094778;28;20369;-73
2022/08/22 04:14:14;;;;;;;;;;;25.20;59.40;;;;;;5094474;28;19919;-72
2022/08/22 04:16:46;;;;;;;;;;;25.20;59.00;;;;;;5109110;28;19908;-72
2022/08/22 04:19:15;;;;;;;;;;;25.20;58.80;;;;;;5116464;28;19919;-73
2022/08/22 04:22:19;;;;;;;;;;;25.30;58.70;;;;;;5114920;28;19908;-74
2022/08/22 04:24:50;;;;;;;;;;;25.30;58.50;;;;;;5073042;28;19916;-72
2022/08/22 04:27:16;;;;;;;;;;;25.30;58.80;;;;;;5091504;28;19908;-72
2022/08/22 04:29:45;;;;;;;;;;;25.30;58.50;;;;;;5104396;28;19919;-73
2022/08/22 04:32:12;;;;;;;;;;;25.30;58.20;;;;;;5114218;28;19908;-73
2022/08/22 04:34:49;;;;;;;;;;;25.40;58.40;;;;;;5114057;28;20395;-71
2022/08/22 04:37:24;;;;;;;;;;;25.40;58.50;;;;;;5115181;28;19920;-73
2022/08/22 04:39:56;;;;;;;;;;;25.40;58.20;;;;;;5115372;28;19919;-73
2022/08/22 04:42:27;;;;;;;;;;;25.50;58.30;;;;;;5115456;28;19912;-73
2022/08/22 04:44:53;;;;;;;;;;;25.50;58.10;;;;;;5114330;28;20003;-73
2022/08/22 04:47:35;;;;;;;;;;;25.50;58.20;;;;;;5114127;28;20003;-73
2022/08/22 04:50:22;;;;;;;;;;;25.60;58.10;;;;;;5112125;28;19908;-73
2022/08/22 04:52:47;;;;;;;;;;;25.60;57.80;;;;;;5113270;28;19994;-73
2022/08/22 04:55:31;;;;;;;;;;;25.70;57.60;;;;;;5114708;28;19990;-74
2022/08/22 04:58:06;;;;;;;;;;;25.70;57.80;;;;;;5114615;28;19923;-74
2022/08/22 05:00:38;;;;;;;;;;;25.80;57.80;;;;;;5112378;28;20358;-73
2022/08/22 05:03:07;;;;;;;;;;;25.80;57.80;;;;;;5113507;28;19922;-71
2022/08/22 05:05:35;;;;;;;;;;;25.90;57.90;;;;;;5114381;28;19923;-74
2022/08/22 05:08:02;;;;;;;;;;;25.90;57.80;;;;;;5114583;28;20373;-72
2022/08/22 05:10:27;;;;;;;;;;;25.90;57.50;;;;;;5114748;28;19964;-71
2022/08/22 05:13:00;;;;;;;;;;;25.90;57.50;;;;;;5113157;28;19907;-72
2022/08/22 05:15:33;;;;;;;;;;;26.00;57.70;;;;;;5114464;28;19907;-70
2022/08/22 05:18:02;;;;;;;;;;;26.00;57.50;;;;;;5114427;28;20346;-70
2022/08/22 05:20:29;;;;;;;;;;;26.00;57.30;;;;;;5111221;28;19915;-73
2022/08/22 05:22:59;;;;;;;;;;;26.00;57.50;;;;;;5111799;28;19914;-71
2022/08/22 05:25:29;;;;;;;;;;;26.10;57.30;;;;;;5114808;28;19950;-71
2022/08/22 05:28:13;;;;;;;;;;;26.10;57.20;;;;;;5114610;28;19933;-72
2022/08/22 05:30:39;;;;;;;;;;;26.10;57.00;;;;;;5114723;28;19918;-73
2022/08/22 05:33:13;;;;;;;;;;;26.20;56.80;;;;;;5112801;28;19919;-73
2022/08/22 05:35:44;;;;;;;;;;;26.20;56.80;;;;;;5114654;28;19951;-72
2022/08/22 05:38:13;;;;;;;;;;;26.20;56.80;;;;;;5114861;28;19916;-72
2022/08/22 05:40:39;;;;;;;;;;;26.30;56.60;;;;;;5115013;27;19912;-72
2022/08/22 05:43:08;;;;;;;;;;;26.30;56.70;;;;;;5114003;28;19918;-72
2022/08/22 05:45:35;;;;;;;;;;;26.30;56.70;;;;;;5112697;27;19951;-72
2022/08/22 05:48:06;;;;;;;;;;;26.30;56.70;;;;;;5114647;28;19914;-72
2022/08/22 05:50:32;;;;;;;;;;;26.40;56.90;;;;;;5114887;28;20342;-72
2022/08/22 05:52:58;;;;;;;;;;;26.40;56.60;;;;;;5114670;28;19915;-72
2022/08/22 05:55:42;;;;;;;;;;;26.40;56.70;;;;;;5114778;28;19915;-73
2022/08/22 05:58:27;;;;;;;;;;;26.40;56.90;;;;;;5114360;28;19912;-73
2022/08/22 06:00:57;;;;;;;;;;;26.40;56.50;;;;;;5114288;28;19919;-72
2022/08/22 06:03:23;;;;;;;;;;;26.50;56.50;;;;;;5114373;28;19912;-72
2022/08/22 06:05:50;;;;;;;;;;;26.50;56.50;;;;;;5114554;28;19914;-73
2022/08/22 06:08:19;;;;;;;;;;;26.50;56.60;;;;;;5114394;28;19915;-72
2022/08/22 06:10:46;;;;;;;;;;;26.60;56.60;;;;;;5114533;28;19919;-73
2022/08/22 06:13:32;;;;;;;;;;;26.60;56.40;;;;;;5113719;28;20473;-74
2022/08/22 06:16:07;;;;;;;;;;;26.60;56.50;;;;;;5114458;28;20029;-72
2022/08/22 06:18:37;;;;;;;;;;;26.60;56.20;;;;;;5114229;28;19916;-73
2022/08/22 06:21:05;;;;;;;;;;;26.60;56.10;;;;;;5093163;28;20009;-73
2022/08/22 06:23:37;;;;;;;;;;;26.60;56.10;;;;;;5092406;28;19908;-73
2022/08/22 06:26:04;;;;;;;;;;;26.60;56.10;;;;;;5099546;28;19919;-72
2022/08/22 06:28:40;;;;;;;;;;;26.60;55.90;;;;;;5092641;28;19908;-72
2022/08/22 06:31:10;;;;;;;;;;;26.60;56.30;;;;;;5093906;28;20010;-72
2022/08/22 06:33:37;;;;;;;;;;;26.60;55.90;;;;;;5093960;28;19912;-73
2022/08/22 06:38:49;;;;;;;;;;;26.70;56.10;;;;;;5093821;28;19927;-72
2022/08/22 06:41:15;;;;;;;;;;;26.70;55.70;;;;;;5092325;28;20285;-72
2022/08/22 06:43:42;;;;;;;;;;;26.60;55.90;;;;;;5093471;28;19908;-73
2022/08/22 06:46:08;;;;;;;;;;;26.70;55.90;;;;;;5093660;28;19950;-72
2022/08/22 06:48:34;;;;;;;;;;;26.70;55.80;;;;;;5093262;28;20350;-73
2022/08/22 06:51:00;;;;;;;;;;;26.70;55.60;;;;;;5094107;28;19908;-72
2022/08/22 06:53:28;;;;;;;;;;;26.80;55.80;;;;;;5093850;28;19961;-71
2022/08/22 06:55:54;;;;;;;;;;;26.70;55.50;;;;;;5093661;28;19961;-73
2022/08/22 06:58:22;;;;;;;;;;;26.70;55.30;;;;;;5097051;28;19958;-73
2022/08/22 07:00:52;;;;;;;;;;;26.80;55.20;;;;;;5097448;28;19933;-73
2022/08/22 07:03:34;;;;;;;;;;;26.70;55.30;;;;;;5097365;28;19916;-72
2022/08/22 07:05:59;;;;;;;;;;;26.80;55.40;;;;;;5096017;28;19918;-71
2022/08/22 07:08:28;;;;;;;;;;;26.80;55.30;;;;;;5097043;28;19952;-73
2022/08/22 07:10:57;;;;;;;;;;;26.80;55.40;;;;;;5097006;28;20416;-73
2022/08/22 07:13:24;;;;;;;;;;;26.80;55.20;;;;;;5096738;28;19937;-73
2022/08/22 07:15:52;;;;;;;;;;;26.80;55.20;;;;;;5095680;28;19909;-73
2022/08/22 07:18:19;;;;;;;;;;;26.80;55.00;;;;;;5096962;28;19999;-73
2022/08/22 07:20:56;;;;;;;;;;;26.80;55.20;;;;;;5096841;28;19919;-73
2022/08/22 07:23:32;;;;;;;;;;;26.80;55.30;;;;;;5095816;28;19908;-72
2022/08/22 07:26:13;;;;;;;;;;;26.90;55.30;;;;;;5095628;28;19909;-72
2022/08/22 07:28:39;;;;;;;;;;;26.90;55.10;;;;;;5096623;28;20262;-73
2022/08/22 07:31:28;;;;;;;;;;;26.90;55.30;;;;;;5095494;28;19912;-72
2022/08/22 07:33:59;;;;;;;;;;;26.90;55.20;;;;;;5076625;28;19915;-73
2022/08/22 07:36:24;;;;;;;;;;;26.90;55.10;;;;;;5096665;28;19965;-73
2022/08/22 07:38:59;;;;;;;;;;;26.90;54.80;;;;;;5096837;28;19916;-73
2022/08/22 07:41:30;;;;;;;;;;;27.00;54.90;;;;;;5097125;28;20377;-73
2022/08/22 07:44:02;;;;;;;;;;;27.00;55.00;;;;;;5095401;28;20003;-73
2022/08/22 07:46:36;;;;;;;;;;;27.00;54.90;;;;;;5096241;28;19915;-73
2022/08/22 07:49:02;;;;;;;;;;;27.00;54.90;;;;;;5095090;28;19915;-72
2022/08/22 07:51:39;;;;;;;;;;;27.00;54.90;;;;;;5094932;28;19912;-72
2022/08/22 07:54:06;;;;;;;;;;;27.00;54.90;;;;;;5096020;28;19953;-72
2022/08/22 07:56:36;;;;;;;;;;;27.10;54.70;;;;;;5095112;28;20387;-73
2022/08/22 07:59:05;;;;;;;;;;;27.10;54.70;;;;;;5095944;28;19912;-73
2022/08/22 08:01:31;;;;;;;;;;;27.00;54.70;;;;;;5096142;28;19912;-73
2022/08/22 08:04:03;;;;;;;;;;;27.10;54.90;;;;;;5096101;28;20313;-72
2022/08/22 08:06:30;;;;;;;;;;;27.10;54.70;;;;;;5096023;28;19999;-73
2022/08/22 08:08:56;;;;;;;;;;;27.10;54.70;;;;;;5094988;28;19953;-72
2022/08/22 08:11:24;;;;;;;;;;;27.10;54.40;;;;;;5094472;28;19908;-73
2022/08/22 08:13:53;;;;;;;;;;;27.10;54.60;;;;;;5095659;28;19915;-73
2022/08/22 08:16:21;;;;;;;;;;;27.10;54.60;;;;;;5095655;28;19912;-72
2022/08/22 08:18:48;;;;;;;;;;;27.10;54.20;;;;;;5095360;28;20362;-70
2022/08/22 08:21:24;;;;;;;;;;;27.20;53.90;;;;;;5095761;28;20015;-71
2022/08/22 08:23:50;;;;;;;;;;;27.20;54.00;;;;;;5095532;28;19909;-72
2022/08/22 08:26:19;;;;;;;;;;;27.20;53.70;;;;;;5095518;28;19914;-73
2022/08/22 08:28:50;;;;;;;;;;;27.20;53.70;;;;;;5095309;28;19915;-73
2022/08/22 08:31:34;;;;;;;;;;;27.20;53.80;;;;;;5094193;28;20022;-74
2022/08/22 08:34:05;;;;;;;;;;;27.20;53.60;;;;;;5095449;28;20366;-72
2022/08/22 08:36:35;;;;;;;;;;;27.30;53.70;;;;;;5095245;28;19958;-72
2022/08/22 08:39:13;;;;;;;;;;;27.30;53.40;;;;;;5093496;28;19935;-73
2022/08/22 08:41:41;;;;;;;;;;;27.30;53.60;;;;;;5094016;28;19912;-72
2022/08/22 08:44:27;;;;;;;;;;;27.30;53.30;;;;;;5095247;28;19911;-72
2022/08/22 08:47:07;;;;;;;;;;;27.30;53.30;;;;;;5094443;28;20305;-72
2022/08/22 08:49:44;;;;;;;;;;;27.30;53.30;;;;;;5095383;28;19912;-72
2022/08/22 08:52:18;;;;;;;;;;;27.30;53.30;;;;;;5094795;28;19915;-72
2022/08/22 08:54:54;;;;;;;;;;;27.30;53.40;;;;;;5095020;28;19908;-72
2022/08/22 08:57:22;;;;;;;;;;;27.40;53.50;;;;;;5095006;28;19934;-73
2022/08/22 08:59:55;;;;;;;;;;;27.40;53.50;;;;;;5094593;28;19913;-73
2022/08/22 09:02:23;;;;;;;;;;;27.40;53.60;;;;;;5095252;28;19995;-73
2022/08/22 09:04:49;;;;;;;;;;;27.40;53.50;;;;;;5094700;28;19908;-73
2022/08/22 09:07:34;;;;;;;;;;;27.40;53.50;;;;;;5094655;28;19908;-72
2022/08/22 09:10:12;;;;;;;;;;;27.40;53.30;;;;;;5093194;28;19963;-72
2022/08/22 09:12:47;;;;;;;;;;;27.40;53.30;;;;;;5093789;28;19912;-73
2022/08/22 09:15:21;;;;;;;;;;;27.40;53.30;;;;;;5094804;28;19912;-72
2022/08/22 09:17:46;;;;;;;;;;;27.40;53.20;;;;;;5093329;28;19935;-72
2022/08/22 09:20:25;;;;;;;;;;;27.40;53.00;;;;;;5093481;28;19912;-73
2022/08/22 09:22:51;;;;;;;;;;;27.50;52.60;;;;;;5094904;28;19912;-72
2022/08/22 09:25:22;;;;;;;;;;;27.50;52.90;;;;;;5094738;28;20405;-72
2022/08/22 09:28:01;;;;;;;;;;;27.50;52.90;;;;;;5094327;28;19918;-73
2022/08/22 09:30:41;;;;;;;;;;;27.50;52.80;;;;;;5093418;28;19995;-72
2022/08/22 09:33:14;;;;;;;;;;;27.50;52.50;;;;;;5093417;28;20445;-72
2022/08/22 09:35:43;;;;;;;;;;;27.60;52.60;;;;;;5094155;28;20422;-73
2022/08/22 09:38:24;;;;;;;;;;;27.60;52.60;;;;;;5094290;28;19916;-72
2022/08/22 09:41:10;;;;;;;;;;;27.60;52.50;;;;;;5094183;28;20008;-73
2022/08/22 09:44:00;;;;;;;;;;;27.60;52.60;;;;;;5072567;28;19912;-73
2022/08/22 09:46:26;;;;;;;;;;;27.60;52.40;;;;;;5095124;28;19991;-73
2022/08/22 09:48:52;;;;;;;;;;;27.60;52.00;;;;;;5094275;28;19979;-73
2022/08/22 09:51:17;;;;;;;;;;;27.60;52.40;;;;;;5094325;28;19918;-72
2022/08/22 09:53:56;;;;;;;;;;;27.70;52.50;;;;;;5093904;28;19916;-73
2022/08/22 09:56:27;;;;;;;;;;;27.70;52.30;;;;;;5092937;28;19912;-73
2022/08/22 09:58:59;;;;;;;;;;;27.70;52.30;;;;;;5094208;28;19985;-73
2022/08/22 10:01:28;;;;;;;;;;;27.70;52.40;;;;;;5093869;28;19934;-73
2022/08/22 10:04:09;;;;;;;;;;;27.70;52.40;;;;;;5093836;28;19931;-73
2022/08/22 10:06:42;;;;;;;;;;;27.70;52.40;;;;;;5094386;28;20049;-73
2022/08/22 10:09:21;;;;;;;;;;;27.70;52.40;;;;;;5092489;28;19920;-73
2022/08/22 10:11:52;;;;;;;;;;;27.80;52.40;;;;;;5092756;28;19966;-73
2022/08/22 10:14:23;;;;;;;;;;;27.80;52.20;;;;;;5094016;28;19912;-72
2022/08/22 10:16:51;;;;;;;;;;;27.80;52.10;;;;;;5094011;28;19940;-72
2022/08/22 10:19:26;;;;;;;;;;;27.80;52.10;;;;;;5093584;28;19917;-72
2022/08/22 10:22:10;;;;;;;;;;;27.80;52.20;;;;;;5092254;28;19908;-73
2022/08/22 10:24:41;;;;;;;;;;;27.90;52.00;;;;;;5093938;28;19909;-73
2022/08/22 10:27:12;;;;;;;;;;;27.90;52.10;;;;;;5093726;28;19908;-73
2022/08/22 10:29:50;;;;;;;;;;;27.80;52.10;;;;;;5092797;28;19912;-73
2022/08/22 10:32:15;;;;;;;;;;;27.90;52.20;;;;;;5096577;28;19908;-72
2022/08/22 10:34:47;;;;;;;;;;;27.90;52.10;;;;;;5098306;28;20351;-72
2022/08/22 10:37:45;;;;;;;;;;;27.90;52.10;;;;;;5096725;28;19923;-72
2022/08/22 10:40:13;;;;;;;;;;;27.90;52.00;;;;;;5062820;28;19916;-71
2022/08/22 10:42:49;;;;;;;;;;;27.90;51.90;;;;;;5097516;28;20287;-73
2022/08/22 10:45:32;;;;;;;;;;;28.00;51.60;;;;;;5097443;28;19908;-72
2022/08/22 10:47:57;;;;;;;;;;;28.00;51.80;;;;;;5096082;28;19950;-72
2022/08/22 10:50:28;;;;;;;;;;;28.00;51.90;;;;;;5097277;28;19962;-73
2022/08/22 10:53:28;;;;;;;;;;;28.10;51.90;;;;;;5096625;28;19919;-72
2022/08/22 10:55:44;;;;;;;;;;;28.10;52.30;;;;;;5097436;28;20053;-73
2022/08/22 10:58:11;;;;;;;;;;;28.10;51.70;;;;;;5097189;28;20006;-73
2022/08/22 11:00:42;;;;;;;;;;;28.20;51.80;;;;;;5097274;28;19912;-72
2022/08/22 11:03:11;;;;;;;;;;;28.20;51.80;;;;;;5097443;28;19991;-72
2022/08/22 11:05:38;;;;;;;;;;;28.20;51.70;;;;;;5097388;28;19908;-72
2022/08/22 11:08:18;;;;;;;;;;;28.20;51.70;;;;;;5097384;28;19912;-73
2022/08/22 11:10:57;;;;;;;;;;;28.30;51.70;;;;;;5095935;28;19920;-72
2022/08/22 11:13:31;;;;;;;;;;;28.30;51.70;;;;;;5096219;28;19908;-73
2022/08/22 11:16:05;;;;;;;;;;;28.30;51.70;;;;;;5096305;28;20397;-74
2022/08/22 11:18:50;;;;;;;;;;;28.30;51.50;;;;;;5096839;28;19913;-73
2022/08/22 11:21:25;;;;;;;;;;;28.30;51.60;;;;;;5097046;28;19912;-74
2022/08/22 11:23:59;;;;;;;;;;;28.30;51.50;;;;;;5095737;28;19908;-73
2022/08/22 11:26:27;;;;;;;;;;;28.40;51.60;;;;;;5097387;28;20380;-73
2022/08/22 11:29:02;;;;;;;;;;;28.40;51.60;;;;;;5096678;28;19966;-73
2022/08/22 11:31:44;;;;;;;;;;;28.40;51.40;;;;;;5096841;28;19908;-73
2022/08/22 11:34:26;;;;;;;;;;;28.40;51.60;;;;;;5094997;28;19912;-73
2022/08/22 11:36:54;;;;;;;;;;;28.40;51.60;;;;;;5097071;28;19913;-73
2022/08/22 11:39:23;;;;;;;;;;;28.50;51.60;;;;;;5096746;28;19919;-72
2022/08/22 11:41:53;;;;;;;;;;;28.50;51.60;;;;;;5096589;28;19912;-72
2022/08/22 11:44:26;;;;;;;;;;;28.50;51.60;;;;;;5094098;28;19908;-72
2022/08/22 11:46:55;;;;;;;;;;;28.50;51.60;;;;;;5095328;28;19915;-72
2022/08/22 11:49:27;;;;;;;;;;;28.50;51.20;;;;;;5096689;28;19961;-72
2022/08/22 11:51:58;;;;;;;;;;;28.50;51.50;;;;;;5094920;28;19913;-72
2022/08/22 11:54:36;;;;;;;;;;;28.50;51.50;;;;;;5096253;28;19915;-73
2022/08/22 11:57:05;;;;;;;;;;;28.50;51.40;;;;;;5095810;28;20006;-73
2022/08/22 11:59:46;;;;;;;;;;;28.50;51.30;;;;;;5095467;28;19912;-72
2022/08/22 12:02:25;;;;;;;;;;;28.60;51.50;;;;;;5097350;28;19908;-72
2022/08/22 12:04:56;;;;;;;;;;;28.60;51.20;;;;;;5096115;28;19908;-72
2022/08/22 12:07:24;;;;;;;;;;;28.70;51.40;;;;;;5096014;28;19995;-73
2022/08/22 12:09:54;;;;;;;;;;;28.70;51.30;;;;;;5096114;28;19989;-72
2022/08/22 12:12:19;;;;;;;;;;;28.80;51.40;;;;;;5094553;28;19953;-72
2022/08/22 12:14:50;;;;;;;;;;;28.70;51.20;;;;;;5095960;28;20316;-72
2022/08/22 12:17:34;;;;;;;;;;;28.80;51.30;;;;;;5095842;28;19908;-72
2022/08/22 12:20:06;;;;;;;;;;;28.90;51.40;;;;;;5096129;28;19912;-72
2022/08/22 12:22:34;;;;;;;;;;;28.90;51.30;;;;;;5096195;28;19912;-73
2022/08/22 12:25:18;;;;;;;;;;;28.90;51.00;;;;;;5095458;28;20367;-72
2022/08/22 12:27:44;;;;;;;;;;;28.90;51.10;;;;;;5095370;28;19934;-72
2022/08/22 12:30:13;;;;;;;;;;;29.00;51.20;;;;;;5094075;28;20312;-72
2022/08/22 12:32:38;;;;;;;;;;;29.00;51.10;;;;;;5095408;28;19908;-72
2022/08/22 12:35:23;;;;;;;;;;;29.10;51.10;;;;;;5095652;28;19966;-73
2022/08/22 12:38:15;;;;;;;;;;;29.10;51.00;;;;;;5095329;28;20330;-73
2022/08/22 12:40:40;;;;;;;;;;;29.10;51.00;;;;;;5091196;28;20251;-73
2022/08/22 12:43:24;;;;;;;;;;;29.10;50.80;;;;;;5095378;28;19961;-73
2022/08/22 12:46:08;;;;;;;;;;;29.20;50.70;;;;;;5095486;28;19908;-73
2022/08/22 12:48:53;;;;;;;;;;;29.20;50.60;;;;;;5093620;28;20477;-72
2022/08/22 12:51:30;;;;;;;;;;;29.30;50.50;;;;;;5093824;28;19908;-74
2022/08/22 12:54:08;;;;;;;;;;;29.40;50.50;;;;;;5095493;28;19908;-73
2022/08/22 12:56:39;;;;;;;;;;;29.40;50.50;;;;;;5095108;28;19940;-73
2022/08/22 12:59:17;;;;;;;;;;;29.40;50.40;;;;;;5094865;28;19922;-73
2022/08/22 13:01:43;;;;;;;;;;;29.50;50.30;;;;;;5095103;28;19912;-72
2022/08/22 13:04:14;;;;;;;;;;;29.50;49.90;;;;;;5094920;28;19915;-73
2022/08/22 13:06:40;;;;;;;;;;;29.60;50.00;;;;;;5093651;28;20282;-73
2022/08/22 13:09:17;;;;;;;;;;;29.60;50.10;;;;;;5093530;28;19920;-74
2022/08/22 13:11:44;;;;;;;;;;;29.70;49.80;;;;;;5094642;28;20282;-73
2022/08/22 13:14:11;;;;;;;;;;;29.80;50.00;;;;;;5094892;28;19919;-74
2022/08/22 13:16:38;;;;;;;;;;;29.80;49.70;;;;;;5093553;28;19908;-71
2022/08/22 13:19:10;;;;;;;;;;;29.80;49.70;;;;;;5094428;28;20377;-73
2022/08/22 13:21:38;;;;;;;;;;;30.00;49.90;;;;;;5094984;28;19919;-73
2022/08/22 13:24:32;;;;;;;;;;;30.10;49.80;;;;;;5094302;28;19993;-73
2022/08/22 13:27:00;;;;;;;;;;;30.20;49.50;;;;;;5093375;28;19908;-73
2022/08/22 13:29:38;;;;;;;;;;;30.30;49.70;;;;;;5094493;28;19972;-71
2022/08/22 13:32:04;;;;;;;;;;;30.40;49.60;;;;;;5094327;28;19908;-73
2022/08/22 13:34:43;;;;;;;;;;;30.50;49.50;;;;;;5094533;28;19991;-72
2022/08/22 13:37:15;;;;;;;;;;;30.60;49.50;;;;;;5094594;28;19918;-73
2022/08/22 13:39:44;;;;;;;;;;;30.70;49.30;;;;;;5094095;28;19912;-73
2022/08/22 13:42:14;;;;;;;;;;;30.80;49.10;;;;;;5094123;28;20006;-73
2022/08/22 13:44:42;;;;;;;;;;;30.80;49.20;;;;;;5076335;28;19955;-73
2022/08/22 14:16:32;;;;;;;;;;;30.90;49.20;;;;;;5100517;28;19926;-74
2022/08/22 14:19:01;;;;;;;;;;;30.90;49.30;;;;;;5101466;28;19965;-71
2022/08/22 14:21:26;;;;;;;;;;;30.90;48.90;;;;;;5101376;28;19913;-73
2022/08/22 14:23:54;;;;;;;;;;;30.80;49.20;;;;;;5100175;28;20342;-73
2022/08/22 14:26:26;;;;;;;;;;;30.80;48.80;;;;;;5101087;28;19908;-72
2022/08/22 14:28:55;;;;;;;;;;;30.80;49.00;;;;;;5098989;28;19908;-73
2022/08/22 14:31:23;;;;;;;;;;;30.80;49.10;;;;;;5099467;28;20282;-73
2022/08/22 14:34:01;;;;;;;;;;;30.80;49.00;;;;;;5099225;28;19915;-73
2022/08/22 14:36:33;;;;;;;;;;;30.80;48.50;;;;;;5099100;28;19916;-72
2022/08/22 14:39:02;;;;;;;;;;;30.80;49.10;;;;;;5100230;28;20006;-72
2022/08/22 14:41:31;;;;;;;;;;;30.70;48.90;;;;;;5098916;28;20331;-74
2022/08/22 14:44:32;;;;;;;;;;;30.70;48.90;;;;;;5099171;28;20010;-73
2022/08/22 14:46:59;;;;;;;;;;;30.70;49.10;;;;;;5057805;28;19916;-73
2022/08/22 14:49:48;;;;;;;;;;;30.70;49.30;;;;;;5091646;28;19953;-74
2022/08/22 14:52:26;;;;;;;;;;;30.70;49.20;;;;;;5090693;28;19912;-72
2022/08/22 14:55:04;;;;;;;;;;;30.70;49.60;;;;;;5100325;28;20255;-74
2022/08/22 14:57:31;;;;;;;;;;;30.70;49.20;;;;;;5100189;28;19912;-72
2022/08/22 14:59:57;;;;;;;;;;;30.80;49.20;;;;;;5099949;28;19912;-73
2022/08/22 15:02:30;;;;;;;;;;;30.80;49.10;;;;;;5099652;28;19919;-73
2022/08/22 15:04:57;;;;;;;;;;;30.70;48.90;;;;;;5100123;28;19908;-73
2022/08/22 15:07:24;;;;;;;;;;;30.60;49.00;;;;;;5099949;28;19934;-72
2022/08/22 15:09:55;;;;;;;;;;;30.50;49.20;;;;;;5098842;28;19915;-72
2022/08/22 15:12:24;;;;;;;;;;;30.50;49.30;;;;;;5098812;28;19909;-72
2022/08/22 15:14:51;;;;;;;;;;;30.60;49.50;;;;;;5099723;28;19908;-73
2022/08/22 15:17:33;;;;;;;;;;;30.60;49.30;;;;;;5099058;28;19998;-72
2022/08/22 15:20:26;;;;;;;;;;;30.70;49.40;;;;;;5095219;28;19912;-72
2022/08/22 15:22:53;;;;;;;;;;;30.70;49.30;;;;;;5080809;28;20377;-72
2022/08/22 15:25:27;;;;;;;;;;;30.70;49.30;;;;;;5096594;28;19908;-72
2022/08/22 15:27:52;;;;;;;;;;;30.70;49.20;;;;;;5096648;28;19919;-72